Aérodrome :
LOGIN :

S'inscrire | Disclaimer

   EN    FR    IT 

 










Légende :    VFR   VFR Marginal   IFR   IFR Intensif   IFR Très Intensif
Visi : 
Plafond : 
>= 8 km
>= 3000ft
5 à 8 km
1000 à 3000 ft
1500m à 5 km
500 à 1000 ft
800 à 1500m
200 à 500 ft
< 800m
< 200 ft
Symboles :   Orages  Brouillard  Fortes neiges  Fortes précipitations  Vent > 20 kt
SIGMETs :   Divers  Orages  Givrage  Turbulence  Onde Orograph.  Cendres Volcan.






- Altitude de l'aérodrome : 408 ft
- Code IATA : KWG


UKDR - Lozuvatka

DERNIER METAR :
  • 190800Z 34006MPS 320V040 9999 BKN034 14/03 Q1022 R36/09//70 NOSIG

METARs EXPIRÉS :
  • 190730Z 33004MPS 300V010 9999 OVC031 12/03 Q1022 R36/09//70 NOSIG
  • 190700Z 34006MPS 300V050 9999 OVC032 12/03 Q1022 R36/09//70 NOSIG
  • 190630Z 32005MPS 9999 OVC033 12/03 Q1022 R36/09//70 NOSIG
  • 190600Z 32006MPS 9999 OVC032 12/03 Q1022 R36/09//70 NOSIG
  • 190530Z 33006MPS 310V030 9999 OVC033 12/03 Q1021 R36/09//70 NOSIG

TAF TAF UKDR
Valide du 19 à 06h jusqu'au 20 à 06h UTC


190503Z 1906/2006 33004G09MPS 9999 BKN025
FIR UKDV / Europe



MET'MAP, la Météo Aéronautique d'un coup d'oeil ! - Copyright ORBIFLY Décembre 2007 - Disclaimer

ORBIFLY MET'MAP TEAM :

Programmation & Développement : Alexandra Zaïnal
Sur une idée originale de : Baudouin d'Aumeries
Assistance à la programmation : Marc-Olivier Méhu
Soutien technique & logistique : Manuel Goepfert

Contact : metmap@orbifly.com




SOURCES & CREDITS :

   NOAA